Hlavní strana
METAR-TAF:

METAR-TAF

Letiště :

Leknes, Norsko

zeměpisná šířka: 68-09N, zeměpisná délka: 013-37E, výška: 2 m

Aktuální stav počasí

Zpráva byla vytvořena před 6 hodinami a 25 minutami, v 21:20 UTC
Východní vítr 4 kt
Teplota -7°C
Vlhkost vzduchu 93%
Tlak 992 hPa
Viditelnost 10 km a více
Polojasno ve výšce 3500 ft

METAR: ENLK 152120Z 09004KT 9999 SCT035 M07/M08 Q0992

Čas: 04:45 (03:45 UTC)


TAF: chybějící

Stav a předpovědi počasí z více než 4 000 letišť (zprávy METAR a TAF).

Červené a žluté tečky na mapě představují dostupné meteorologické stanice.

Když kurzor umístíte na tečku, zobrazí se název stanice.

Pak kliknutím zobrazíte stav a předpověď počasí.

Chcete-li změnit mapu, kliknutím na zelené tlačítko se znaménkem +mapu přiblížíte, kliknutím na zelené tlačítko se znaménkem – mapu oddálíte a kliknutím na zelené šipky přejdete na sousední mapy.


METAR-TAF: